createdAt,value
2018-03-29T00:00:14.836Z,999.62
2018-03-29T00:01:24.736Z,999.63
2018-03-29T00:02:34.038Z,999.66
2018-03-29T00:03:43.777Z,999.68
2018-03-29T00:04:52.854Z,999.67
2018-03-29T00:06:01.685Z,999.67
2018-03-29T00:07:10.713Z,999.66
2018-03-29T00:08:20.552Z,999.7
2018-03-29T00:09:29.384Z,999.66
2018-03-29T00:10:39.080Z,999.66
2018-03-29T00:11:48.708Z,999.69
2018-03-29T00:12:58.010Z,999.69
2018-03-29T00:14:06.967Z,999.71
2018-03-29T00:15:16.259Z,999.7
2018-03-29T00:16:25.534Z,999.75
2018-03-29T00:17:35.269Z,999.7
2018-03-29T00:18:44.682Z,999.73
2018-03-29T00:19:54.078Z,999.74
2018-03-29T00:21:02.893Z,999.73
2018-03-29T00:22:11.676Z,999.77
2018-03-29T00:23:20.744Z,999.8
2018-03-29T00:24:29.685Z,999.78
2018-03-29T00:25:38.743Z,999.78
2018-03-29T00:26:47.844Z,999.78
2018-03-29T00:27:56.948Z,999.85
2018-03-29T00:29:06.452Z,999.8
2018-03-29T00:30:15.785Z,999.82
2018-03-29T00:31:24.797Z,999.83
2018-03-29T00:32:33.794Z,999.81
2018-03-29T00:33:43.451Z,999.85
2018-03-29T00:34:52.434Z,999.9
2018-03-29T00:36:01.230Z,999.84
2018-03-29T00:37:10.332Z,999.8
2018-03-29T00:38:19.134Z,999.78
2018-03-29T00:39:28.158Z,999.82
2018-03-29T00:40:37.472Z,999.8
2018-03-29T00:41:46.837Z,999.75
2018-03-29T00:42:55.888Z,999.85
2018-03-29T00:44:04.593Z,999.84
2018-03-29T00:45:13.847Z,999.83
2018-03-29T00:46:23.184Z,999.81
2018-03-29T00:47:31.957Z,999.81
2018-03-29T00:48:40.989Z,999.81
2018-03-29T00:49:50.320Z,999.86
2018-03-29T00:50:59.109Z,999.89
2018-03-29T00:52:08.142Z,999.88
2018-03-29T00:53:17.272Z,999.91
2018-03-29T00:54:26.637Z,999.9
2018-03-29T00:55:35.477Z,999.96
2018-03-29T00:56:44.553Z,999.89
2018-03-29T00:57:53.924Z,999.91
2018-03-29T00:59:02.963Z,999.91
2018-03-29T01:00:12.275Z,999.94
2018-03-29T01:01:21.108Z,999.94
2018-03-29T01:02:30.430Z,1000
2018-03-29T01:03:39.734Z,1000
2018-03-29T01:04:48.801Z,1000.01
2018-03-29T01:05:57.876Z,1000
2018-03-29T01:07:07.046Z,1000.03
2018-03-29T01:08:16.409Z,1000.02
2018-03-29T01:09:25.469Z,1000.07
2018-03-29T01:10:35.097Z,1000.03
2018-03-29T01:11:44.182Z,1000.03
2018-03-29T01:12:53.272Z,1000.07
2018-03-29T01:14:02.602Z,1000.02
2018-03-29T01:15:11.731Z,999.98
2018-03-29T01:16:21.318Z,1000
2018-03-29T01:17:30.475Z,1000.02
2018-03-29T01:18:39.316Z,1000.04
2018-03-29T01:19:48.398Z,1000.04
2018-03-29T01:20:57.396Z,1000.09
2018-03-29T01:22:06.616Z,1000.1
2018-03-29T01:23:15.658Z,1000.07
2018-03-29T01:24:25.376Z,1000.09
2018-03-29T01:25:35.013Z,1000.15
2018-03-29T01:26:44.361Z,1000.17
2018-03-29T01:27:53.581Z,1000.16
2018-03-29T01:29:02.747Z,1000.13
2018-03-29T01:30:11.804Z,1000.2
2018-03-29T01:31:21.124Z,1000.23
2018-03-29T01:32:29.935Z,1000.2
2018-03-29T01:33:39.589Z,1000.21
2018-03-29T01:34:48.935Z,1000.25
2018-03-29T01:35:58.040Z,1000.23
2018-03-29T01:37:07.523Z,1000.27
2018-03-29T01:38:17.208Z,1000.23
2018-03-29T01:39:26.265Z,1000.25
2018-03-29T01:40:35.266Z,1000.29
2018-03-29T01:41:44.126Z,1000.27
2018-03-29T01:42:53.199Z,1000.26
2018-03-29T01:44:03.109Z,1000.26
2018-03-29T01:45:11.952Z,1000.25
2018-03-29T01:46:21.008Z,1000.25
2018-03-29T01:47:29.780Z,1000.33
2018-03-29T01:48:38.533Z,1000.3
2018-03-29T01:49:47.836Z,1000.34
2018-03-29T01:50:56.809Z,1000.33
2018-03-29T01:52:05.825Z,1000.36
2018-03-29T01:53:14.639Z,1000.31
2018-03-29T01:54:23.808Z,1000.34
2018-03-29T01:55:33.411Z,1000.33
2018-03-29T01:56:42.185Z,1000.33
2018-03-29T01:57:50.989Z,1000.36
2018-03-29T01:59:00.051Z,1000.38
2018-03-29T02:00:09.641Z,1000.4
2018-03-29T02:01:19.293Z,1000.37
2018-03-29T02:02:28.073Z,1000.39
2018-03-29T02:03:37.115Z,1000.41
2018-03-29T02:04:46.503Z,1000.45
2018-03-29T02:05:56.281Z,1000.43
2018-03-29T02:07:05.390Z,1000.45
2018-03-29T02:08:14.501Z,1000.48
2018-03-29T02:09:23.650Z,1000.51
2018-03-29T02:10:32.522Z,1000.56
2018-03-29T02:11:41.352Z,1000.59
2018-03-29T02:12:50.393Z,1000.59
2018-03-29T02:13:59.698Z,1000.57
2018-03-29T02:15:08.788Z,1000.54
2018-03-29T02:16:18.019Z,1000.65
2018-03-29T02:17:27.213Z,1000.63
2018-03-29T02:18:36.383Z,1000.62
2018-03-29T02:19:45.419Z,1000.61
2018-03-29T02:20:54.513Z,1000.56
2018-03-29T02:22:03.886Z,1000.57
2018-03-29T02:23:12.786Z,1000.6
2018-03-29T02:24:21.934Z,1000.64
2018-03-29T02:25:31.011Z,1000.64
2018-03-29T02:26:40.637Z,1000.67
2018-03-29T02:27:49.656Z,1000.7
2018-03-29T02:28:59.231Z,1000.72
2018-03-29T02:30:08.527Z,1000.7
2018-03-29T02:31:17.852Z,1000.7
2018-03-29T02:32:26.954Z,1000.7
2018-03-29T02:33:36.289Z,1000.75
2018-03-29T02:34:45.343Z,1000.73
2018-03-29T02:35:54.923Z,1000.72
2018-03-29T02:37:04.153Z,1000.7
2018-03-29T02:38:13.264Z,1000.7
2018-03-29T02:39:22.887Z,1000.74
2018-03-29T02:40:31.656Z,1000.73
2018-03-29T02:41:41.047Z,1000.75
2018-03-29T02:42:50.467Z,1000.76
2018-03-29T02:43:59.776Z,1000.74
2018-03-29T02:45:08.611Z,1000.72
2018-03-29T02:46:17.980Z,1000.74
2018-03-29T02:47:27.581Z,1000.76
2018-03-29T02:48:36.602Z,1000.75
2018-03-29T02:49:45.871Z,1000.77
2018-03-29T02:50:55.165Z,1000.79
2018-03-29T02:52:04.485Z,1000.76
2018-03-29T02:53:13.828Z,1000.75
2018-03-29T02:54:22.690Z,1000.79
2018-03-29T02:55:31.574Z,1000.8
2018-03-29T02:56:41.245Z,1000.78
2018-03-29T02:57:50.685Z,1000.82
2018-03-29T02:59:00.683Z,1000.84
2018-03-29T03:00:09.758Z,1000.81
2018-03-29T03:01:18.561Z,1000.86
2018-03-29T03:02:27.638Z,1000.85
2018-03-29T03:03:36.704Z,1000.85
2018-03-29T03:04:46.108Z,1000.89
2018-03-29T03:05:55.256Z,1000.91
2018-03-29T03:07:04.539Z,1000.91
2018-03-29T03:08:14.064Z,1000.94
2018-03-29T03:09:23.183Z,1000.9
2018-03-29T03:10:32.566Z,1000.92
2018-03-29T03:11:41.952Z,1000.93
2018-03-29T03:12:51.262Z,1000.98
2018-03-29T03:14:00.758Z,1000.96
2018-03-29T03:15:09.862Z,1000.91
2018-03-29T03:16:19.123Z,1000.95
2018-03-29T03:17:27.959Z,1000.92
2018-03-29T03:18:37.281Z,1000.89
2018-03-29T03:19:46.540Z,1000.9
2018-03-29T03:20:55.807Z,1000.92
2018-03-29T03:22:05.218Z,1000.95
2018-03-29T03:23:14.075Z,1000.92
2018-03-29T03:24:23.128Z,1000.93
2018-03-29T03:25:32.708Z,1000.87
2018-03-29T03:26:42.073Z,1000.85
2018-03-29T03:27:51.952Z,1000.82
2018-03-29T03:29:01.722Z,1000.84
2018-03-29T03:30:11.267Z,1000.86
2018-03-29T03:31:20.337Z,1000.91
2018-03-29T03:32:29.922Z,1000.88
2018-03-29T03:33:39.190Z,1000.85
2018-03-29T03:34:48.218Z,1000.89
2018-03-29T03:35:56.995Z,1000.92
2018-03-29T03:37:06.407Z,1000.88
2018-03-29T03:38:16.185Z,1000.92
2018-03-29T03:39:25.739Z,1000.92
2018-03-29T03:40:34.783Z,1000.91
2018-03-29T03:41:43.997Z,1000.93
2018-03-29T03:42:53.364Z,1000.91
2018-03-29T03:44:02.188Z,1000.9
2018-03-29T03:45:11.569Z,1000.91
2018-03-29T03:46:20.690Z,1000.94
2018-03-29T03:47:30.326Z,1000.9
2018-03-29T03:48:39.475Z,1000.9
2018-03-29T03:49:48.461Z,1000.89
2018-03-29T03:50:57.487Z,1000.9
2018-03-29T03:52:06.532Z,1000.91
2018-03-29T03:53:16.139Z,1000.88
2018-03-29T03:54:24.942Z,1000.88
2018-03-29T03:55:34.200Z,1000.85
2018-03-29T03:56:43.473Z,1000.87
2018-03-29T03:57:52.962Z,1000.85
2018-03-29T03:59:02.268Z,1000.92
2018-03-29T04:00:11.345Z,1000.91
2018-03-29T04:01:20.329Z,1000.97
2018-03-29T04:02:29.487Z,1000.94
2018-03-29T04:03:38.515Z,1000.96
2018-03-29T04:04:47.847Z,1000.95
2018-03-29T04:05:57.122Z,1000.96
2018-03-29T04:07:06.679Z,1000.95
2018-03-29T04:08:15.715Z,1000.94
2018-03-29T04:09:24.814Z,1000.93
2018-03-29T04:10:34.191Z,1000.92
2018-03-29T04:11:43.646Z,1000.96
2018-03-29T04:12:52.485Z,1000.98
2018-03-29T04:14:01.543Z,1001
2018-03-29T04:15:10.931Z,1001.02
2018-03-29T04:16:19.685Z,1001.02
2018-03-29T04:17:29.021Z,1001.05
2018-03-29T04:18:38.384Z,1001.05
2018-03-29T04:19:47.405Z,1001.07
2018-03-29T04:20:56.583Z,1001.07
2018-03-29T04:22:05.875Z,1001.04
2018-03-29T04:23:14.921Z,1001.03
2018-03-29T04:24:24.467Z,1001.05
2018-03-29T04:25:33.983Z,1001.02
2018-03-29T04:26:43.606Z,1001.07
2018-03-29T04:27:52.986Z,1001.05
2018-03-29T04:29:02.012Z,1001.04
2018-03-29T04:30:11.098Z,1001.07
2018-03-29T04:31:20.216Z,1001.07
2018-03-29T04:32:29.731Z,1001.06
2018-03-29T04:33:38.697Z,1001.05
2018-03-29T04:34:47.988Z,1001.04
2018-03-29T04:35:56.977Z,1001.03
2018-03-29T04:37:06.018Z,1001.05
2018-03-29T04:38:14.731Z,1001.02
2018-03-29T04:39:23.782Z,1000.98
2018-03-29T04:40:32.866Z,1001.05
2018-03-29T04:41:42.059Z,1001.04
2018-03-29T04:42:51.631Z,1001.04
2018-03-29T04:44:00.438Z,1000.99
2018-03-29T04:45:09.482Z,1000.98
2018-03-29T04:46:18.475Z,1001.01
2018-03-29T04:47:27.524Z,1001
2018-03-29T04:48:36.916Z,1001.01
2018-03-29T04:49:46.279Z,1001
2018-03-29T04:50:55.371Z,1001.01
2018-03-29T04:52:04.451Z,1001.02
2018-03-29T04:53:13.224Z,1001
2018-03-29T04:54:22.277Z,1001
2018-03-29T04:55:31.010Z,1000.97
2018-03-29T04:56:40.547Z,1001.01
2018-03-29T04:57:49.302Z,1001
2018-03-29T04:58:58.727Z,1001.04
2018-03-29T05:00:08.050Z,1001.01
2018-03-29T05:01:17.081Z,1001.01
2018-03-29T05:02:26.129Z,1001.02
2018-03-29T05:03:35.513Z,1001.07
2018-03-29T05:04:44.794Z,1001.04
2018-03-29T05:05:54.067Z,1001.04
2018-03-29T05:07:03.102Z,1001.06
2018-03-29T05:08:12.132Z,1001.05
2018-03-29T05:09:21.531Z,1001.05
2018-03-29T05:10:30.846Z,1001.04
2018-03-29T05:11:40.491Z,1001.06
2018-03-29T05:12:49.782Z,1001.07
2018-03-29T05:13:58.792Z,1001.03
2018-03-29T05:15:07.604Z,1001.01
2018-03-29T05:16:17.138Z,1001.06
2018-03-29T05:17:26.184Z,1001
2018-03-29T05:18:35.431Z,1001.05
2018-03-29T05:19:44.683Z,1001
2018-03-29T05:20:53.966Z,1001.04
2018-03-29T05:22:03.220Z,1001.05
2018-03-29T05:23:12.068Z,1001.05
2018-03-29T05:24:21.404Z,1001.05
2018-03-29T05:25:30.691Z,1001.1
2018-03-29T05:26:40.241Z,1001.12
2018-03-29T05:27:49.586Z,1001.15
2018-03-29T05:28:58.908Z,1001.15
2018-03-29T05:30:07.661Z,1001.14
2018-03-29T05:31:17.158Z,1001.22
2018-03-29T05:32:26.180Z,1001.19
2018-03-29T05:33:35.498Z,1001.19
2018-03-29T05:34:44.531Z,1001.21
2018-03-29T05:35:53.905Z,1001.24
2018-03-29T05:37:02.680Z,1001.19
2018-03-29T05:38:11.459Z,1001.14
2018-03-29T05:39:20.545Z,1001.19
2018-03-29T05:40:29.284Z,1001.13
2018-03-29T05:41:38.714Z,1001.17
2018-03-29T05:42:47.801Z,1001.14
2018-03-29T05:43:57.372Z,1001.17
2018-03-29T05:45:06.411Z,1001.15
2018-03-29T05:46:15.784Z,1001.17
2018-03-29T05:47:24.805Z,1001.14
2018-03-29T05:48:33.848Z,1001.15
2018-03-29T05:49:42.871Z,1001.11
2018-03-29T05:50:51.987Z,1001.14
2018-03-29T05:52:00.775Z,1001.1
2018-03-29T05:53:10.477Z,1001.07
2018-03-29T05:54:19.206Z,1001.11
2018-03-29T05:55:28.503Z,1001.14
2018-03-29T05:56:37.242Z,1001.16
2018-03-29T05:57:47.157Z,1001.12
2018-03-29T05:58:56.241Z,1001.15
2018-03-29T06:00:05.601Z,1001.12
2018-03-29T06:01:15.429Z,1001.14
2018-03-29T06:02:24.732Z,1001.13
2018-03-29T06:03:33.753Z,1001.15
2018-03-29T06:04:43.044Z,1001.14
2018-03-29T06:05:52.462Z,1001.19
2018-03-29T06:07:02.154Z,1001.15
2018-03-29T06:08:12.003Z,1001.14
2018-03-29T06:09:21.197Z,1001.11
2018-03-29T06:10:31.083Z,1001.17
2018-03-29T06:11:40.189Z,1001.17
2018-03-29T06:12:49.165Z,1001.13
2018-03-29T06:13:58.168Z,1001.12
2018-03-29T06:15:07.457Z,1001.15
2018-03-29T06:16:16.379Z,1001.15
2018-03-29T06:17:25.837Z,1001.16
2018-03-29T06:18:35.392Z,1001.18
2018-03-29T06:19:44.418Z,1001.12
2018-03-29T06:20:53.480Z,1001.15
2018-03-29T06:22:02.306Z,1001.16
2018-03-29T06:23:11.025Z,1001.17
2018-03-29T06:24:20.447Z,1001.19
2018-03-29T06:25:29.379Z,1001.19
2018-03-29T06:26:38.349Z,1001.25
2018-03-29T06:27:47.557Z,1001.23
2018-03-29T06:28:56.324Z,1001.26
2018-03-29T06:30:05.574Z,1001.23
2018-03-29T06:31:14.940Z,1001.29
2018-03-29T06:32:23.764Z,1001.32
2018-03-29T06:33:33.285Z,1001.32
2018-03-29T06:34:42.009Z,1001.32
2018-03-29T06:35:51.027Z,1001.33
2018-03-29T06:37:00.065Z,1001.35
2018-03-29T06:38:09.341Z,1001.38
2018-03-29T06:39:18.347Z,1001.38
2018-03-29T06:40:27.610Z,1001.4
2018-03-29T06:41:36.642Z,1001.41
2018-03-29T06:42:45.868Z,1001.45
2018-03-29T06:43:54.822Z,1001.38
2018-03-29T06:45:04.591Z,1001.37
2018-03-29T06:46:13.534Z,1001.41
2018-03-29T06:47:23.025Z,1001.35
2018-03-29T06:48:32.612Z,1001.4
2018-03-29T06:49:41.623Z,1001.39
2018-03-29T06:50:50.857Z,1001.38
2018-03-29T06:51:59.840Z,1001.36
2018-03-29T06:53:09.139Z,1001.39
2018-03-29T06:54:18.111Z,1001.38
2018-03-29T06:55:27.617Z,1001.38
2018-03-29T06:56:36.392Z,1001.36
2018-03-29T06:57:45.620Z,1001.39
2018-03-29T06:58:54.639Z,1001.42
2018-03-29T07:00:04.586Z,1001.44
2018-03-29T07:01:14.168Z,1001.36
2018-03-29T07:02:23.295Z,1001.38
2018-03-29T07:03:32.233Z,1001.4
2018-03-29T07:04:41.504Z,1001.4
2018-03-29T07:05:50.544Z,1001.35
2018-03-29T07:06:59.811Z,1001.38
2018-03-29T07:08:08.835Z,1001.38
2018-03-29T07:09:17.575Z,1001.36
2018-03-29T07:10:26.614Z,1001.41
2018-03-29T07:11:36.347Z,1001.41
2018-03-29T07:12:45.307Z,1001.47
2018-03-29T07:13:55.053Z,1001.47
2018-03-29T07:15:04.041Z,1001.51
2018-03-29T07:16:12.980Z,1001.52
2018-03-29T07:17:21.947Z,1001.53
2018-03-29T07:18:30.741Z,1001.52
2018-03-29T07:19:39.942Z,1001.52
2018-03-29T07:20:48.942Z,1001.55
2018-03-29T07:21:58.453Z,1001.51
2018-03-29T07:23:08.118Z,1001.48
2018-03-29T07:24:17.332Z,1001.55
2018-03-29T07:25:26.568Z,1001.49
2018-03-29T07:26:36.153Z,1001.52
2018-03-29T07:27:45.085Z,1001.57
2018-03-29T07:28:54.541Z,1001.55
2018-03-29T07:30:03.545Z,1001.52
2018-03-29T07:31:13.101Z,1001.58
2018-03-29T07:32:22.070Z,1001.56
2018-03-29T07:33:31.049Z,1001.57
2018-03-29T07:34:40.677Z,1001.58
2018-03-29T07:35:49.363Z,1001.62
2018-03-29T07:36:58.086Z,1001.61
2018-03-29T07:38:07.275Z,1001.57
2018-03-29T07:39:17.050Z,1001.64
2018-03-29T07:40:25.942Z,1001.63
2018-03-29T07:41:34.943Z,1001.65
2018-03-29T07:42:44.006Z,1001.65
2018-03-29T07:43:53.333Z,1001.66
2018-03-29T07:45:02.545Z,1001.66
2018-03-29T07:46:11.781Z,1001.66
2018-03-29T07:47:21.079Z,1001.66
2018-03-29T07:48:30.014Z,1001.67
2018-03-29T07:49:38.984Z,1001.66
2018-03-29T07:50:48.468Z,1001.67
2018-03-29T07:51:57.461Z,1001.65
2018-03-29T07:53:06.537Z,1001.68
2018-03-29T07:54:16.135Z,1001.64
2018-03-29T07:55:25.111Z,1001.64
2018-03-29T07:56:34.121Z,1001.7
2018-03-29T07:57:43.324Z,1001.66
2018-03-29T07:58:52.518Z,1001.72
2018-03-29T08:00:01.937Z,1001.72
2018-03-29T08:01:11.192Z,1001.7
2018-03-29T08:02:20.420Z,1001.69
2018-03-29T08:03:29.152Z,1001.72
2018-03-29T08:04:38.612Z,1001.73
2018-03-29T08:05:47.328Z,1001.72
2018-03-29T08:06:56.286Z,1001.77
2018-03-29T08:08:05.988Z,1001.76
2018-03-29T08:09:15.334Z,1001.79
2018-03-29T08:10:24.628Z,1001.81
2018-03-29T08:11:34.379Z,1001.78
2018-03-29T08:12:43.180Z,1001.78
2018-03-29T08:13:52.025Z,1001.8
2018-03-29T08:15:00.710Z,1001.85
2018-03-29T08:16:09.682Z,1001.85
2018-03-29T08:17:19.017Z,1001.9
2018-03-29T08:18:28.326Z,1001.87
2018-03-29T08:19:37.779Z,1001.89
2018-03-29T08:20:46.545Z,1001.89
2018-03-29T08:21:55.286Z,1001.91
2018-03-29T08:23:04.342Z,1001.88
2018-03-29T08:24:13.583Z,1001.89
2018-03-29T08:25:22.803Z,1001.91
2018-03-29T08:26:31.789Z,1001.91
2018-03-29T08:27:40.481Z,1001.88
2018-03-29T08:28:50.051Z,1001.87
2018-03-29T08:29:59.367Z,1001.92
2018-03-29T08:31:08.605Z,1001.9
2018-03-29T08:32:17.610Z,1001.94
2018-03-29T08:33:27.249Z,1001.89
2018-03-29T08:34:35.918Z,1001.91
2018-03-29T08:35:44.837Z,1001.93
2018-03-29T08:36:54.003Z,1001.93
2018-03-29T08:38:03.288Z,1001.93
2018-03-29T08:39:12.204Z,1001.97
2018-03-29T08:40:21.718Z,1001.96
2018-03-29T08:41:30.947Z,1001.99
2018-03-29T08:42:39.953Z,1001.96
2018-03-29T08:43:49.431Z,1001.92
2018-03-29T08:44:58.664Z,1001.95
2018-03-29T08:46:07.599Z,1001.94
2018-03-29T08:47:16.900Z,1001.98
2018-03-29T08:48:26.367Z,1001.96
2018-03-29T08:49:35.139Z,1001.91
2018-03-29T08:50:44.268Z,1001.93
2018-03-29T08:51:53.302Z,1001.94
2018-03-29T08:53:02.364Z,1001.96
2018-03-29T08:54:12.040Z,1001.97
2018-03-29T08:55:21.635Z,1001.97
2018-03-29T08:56:31.019Z,1001.93
2018-03-29T08:57:40.222Z,1001.9
2018-03-29T08:58:49.621Z,1001.96
2018-03-29T08:59:58.553Z,1001.96
2018-03-29T09:01:07.658Z,1001.95
2018-03-29T09:02:16.581Z,1001.96
2018-03-29T09:03:25.713Z,1001.97
2018-03-29T09:04:35.323Z,1002.01
2018-03-29T09:05:44.467Z,1001.98
2018-03-29T09:06:53.617Z,1002.03
2018-03-29T09:08:03.564Z,1002
2018-03-29T09:09:12.414Z,1002
2018-03-29T09:10:21.557Z,1001.96
2018-03-29T09:11:30.943Z,1002.05
2018-03-29T09:12:39.981Z,1002.04
2018-03-29T09:13:49.104Z,1002.03
2018-03-29T09:14:58.688Z,1002.04
2018-03-29T09:16:08.267Z,1002.04
2018-03-29T09:17:17.087Z,1002.11
2018-03-29T09:18:26.481Z,1002.11
2018-03-29T09:19:35.573Z,1002.14
2018-03-29T09:20:44.421Z,1002.14
2018-03-29T09:21:53.762Z,1002.18
2018-03-29T09:23:03.031Z,1002.15
2018-03-29T09:24:12.613Z,1002.17
2018-03-29T09:25:21.431Z,1002.15
2018-03-29T09:26:30.226Z,1002.21
2018-03-29T09:27:40.180Z,1002.22
2018-03-29T09:28:48.994Z,1002.21
2018-03-29T09:29:57.930Z,1002.21
2018-03-29T09:31:07.568Z,1002.22
2018-03-29T09:32:16.819Z,1002.24
2018-03-29T09:33:26.030Z,1002.25
2018-03-29T09:34:34.809Z,1002.27
2018-03-29T09:35:43.948Z,1002.3
2018-03-29T09:36:52.687Z,1002.25
2018-03-29T09:38:01.824Z,1002.28
2018-03-29T09:39:10.957Z,1002.27
2018-03-29T09:40:20.106Z,1002.26
2018-03-29T09:41:29.314Z,1002.26
2018-03-29T09:42:38.460Z,1002.27
2018-03-29T09:43:47.374Z,1002.27
2018-03-29T09:44:56.849Z,1002.25
2018-03-29T09:46:06.071Z,1002.3
2018-03-29T09:47:15.364Z,1002.29
2018-03-29T09:48:24.215Z,1002.29
2018-03-29T09:49:33.258Z,1002.3
2018-03-29T09:50:42.405Z,1002.31
2018-03-29T09:51:52.157Z,1002.3
2018-03-29T09:53:01.779Z,1002.23
2018-03-29T09:54:11.197Z,1002.27
2018-03-29T09:55:20.204Z,1002.28
2018-03-29T09:56:29.533Z,1002.24
2018-03-29T09:57:39.479Z,1002.24
2018-03-29T09:58:48.342Z,1002.24
2018-03-29T09:59:57.692Z,1002.24
2018-03-29T10:01:06.942Z,1002.24
2018-03-29T10:02:16.348Z,1002.29
2018-03-29T10:03:25.549Z,1002.25
2018-03-29T10:04:35.193Z,1002.21
2018-03-29T10:05:44.024Z,1002.17
2018-03-29T10:06:53.069Z,1002.18
2018-03-29T10:08:02.561Z,1002.18
2018-03-29T10:09:12.023Z,1002.15
2018-03-29T10:10:21.119Z,1002.12
2018-03-29T10:11:30.322Z,1002.12
2018-03-29T10:12:39.371Z,1002.17
2018-03-29T10:13:48.443Z,1002.1
2018-03-29T10:14:57.558Z,1002.14
2018-03-29T10:16:06.898Z,1002.13
2018-03-29T10:17:16.056Z,1002.11
2018-03-29T10:18:25.788Z,1002.1
2018-03-29T10:19:35.190Z,1002.11
2018-03-29T10:20:43.992Z,1002.05
2018-03-29T10:21:53.849Z,1002.08
2018-03-29T10:23:02.685Z,1002.08
2018-03-29T10:24:12.121Z,1002.09
2018-03-29T10:25:21.173Z,1002.09
2018-03-29T10:26:30.222Z,1002.05
2018-03-29T10:27:39.041Z,1002.09
2018-03-29T10:28:48.360Z,1002.06
2018-03-29T10:29:57.450Z,1002.07
2018-03-29T10:31:06.244Z,1002.03
2018-03-29T10:32:15.084Z,1002.04
2018-03-29T10:33:23.956Z,1002.07
2018-03-29T10:34:33.358Z,1002
2018-03-29T10:35:42.423Z,1002.01
2018-03-29T10:36:51.503Z,1001.99
2018-03-29T10:38:00.884Z,1001.97
2018-03-29T10:39:10.008Z,1001.96
2018-03-29T10:40:19.857Z,1001.93
2018-03-29T10:41:29.306Z,1001.98
2018-03-29T10:42:38.542Z,1002
2018-03-29T10:43:47.802Z,1001.97
2018-03-29T10:44:57.312Z,1002.02
2018-03-29T10:46:06.091Z,1001.97
2018-03-29T10:47:15.500Z,1002.01
2018-03-29T10:48:24.354Z,1001.94
2018-03-29T10:49:33.371Z,1001.93
2018-03-29T10:50:43.167Z,1001.93
2018-03-29T10:51:51.888Z,1001.95
2018-03-29T10:53:00.913Z,1001.92
2018-03-29T10:54:10.389Z,1001.95
2018-03-29T10:55:19.350Z,1001.9
2018-03-29T10:56:28.536Z,1001.9
2018-03-29T10:57:38.015Z,1001.9
2018-03-29T10:58:47.002Z,1001.9
2018-03-29T10:59:56.242Z,1001.85
2018-03-29T11:01:04.977Z,1001.88
2018-03-29T11:02:13.985Z,1001.82
2018-03-29T11:03:22.943Z,1001.81
2018-03-29T11:04:32.480Z,1001.8
2018-03-29T11:05:41.223Z,1001.77
2018-03-29T11:06:50.181Z,1001.78
2018-03-29T11:07:59.359Z,1001.76
2018-03-29T11:09:08.376Z,1001.75
2018-03-29T11:10:17.717Z,1001.79
2018-03-29T11:11:26.961Z,1001.75
2018-03-29T11:12:35.706Z,1001.74
2018-03-29T11:13:44.675Z,1001.7
2018-03-29T11:14:53.419Z,1001.72
2018-03-29T11:16:03.011Z,1001.74
2018-03-29T11:17:12.222Z,1001.73
2018-03-29T11:18:21.785Z,1001.7
2018-03-29T11:19:31.292Z,1001.73
2018-03-29T11:20:40.531Z,1001.7
2018-03-29T11:21:49.462Z,1001.69
2018-03-29T11:22:58.684Z,1001.66
2018-03-29T11:24:07.866Z,1001.71
2018-03-29T11:25:16.794Z,1001.66
2018-03-29T11:26:25.742Z,1001.66
2018-03-29T11:27:35.765Z,1001.68
2018-03-29T11:28:44.870Z,1001.7
2018-03-29T11:29:54.165Z,1001.7
2018-03-29T11:31:02.861Z,1001.67
2018-03-29T11:32:11.823Z,1001.67
2018-03-29T11:33:21.297Z,1001.64
2018-03-29T11:34:30.922Z,1001.65
2018-03-29T11:35:40.003Z,1001.64
2018-03-29T11:36:48.966Z,1001.71
2018-03-29T11:37:58.231Z,1001.66
2018-03-29T11:39:07.169Z,1001.68
2018-03-29T11:40:16.374Z,1001.74
2018-03-29T11:41:25.677Z,1001.64
2018-03-29T11:42:34.407Z,1001.6
2018-03-29T11:43:43.765Z,1001.72
2018-03-29T11:44:53.130Z,1001.7
2018-03-29T11:46:02.097Z,1001.72
2018-03-29T11:47:11.442Z,1001.71
2018-03-29T11:48:20.455Z,1001.68
2018-03-29T11:49:29.478Z,1001.65
2018-03-29T11:50:38.878Z,1001.76
2018-03-29T11:51:48.460Z,1001.73
2018-03-29T11:52:57.742Z,1001.66
2018-03-29T11:54:07.176Z,1001.67
2018-03-29T11:55:16.764Z,1001.67
2018-03-29T11:56:25.897Z,1001.67
2018-03-29T11:57:34.934Z,1001.68
2018-03-29T11:58:44.040Z,1001.67
2018-03-29T11:59:53.155Z,1001.72
2018-03-29T12:01:02.436Z,1001.73
2018-03-29T12:02:11.293Z,1001.65
2018-03-29T12:03:20.391Z,1001.62
2018-03-29T12:04:29.383Z,1001.62
2018-03-29T12:05:38.692Z,1001.54
2018-03-29T12:06:48.297Z,1001.57
2018-03-29T12:07:57.037Z,1001.63
2018-03-29T12:09:05.757Z,1001.64
2018-03-29T12:10:14.794Z,1001.65
2018-03-29T12:11:23.876Z,1001.64
2018-03-29T12:12:32.890Z,1001.66
2018-03-29T12:13:42.169Z,1001.64
2018-03-29T12:14:51.385Z,1001.63
2018-03-29T12:16:00.986Z,1001.7
2018-03-29T12:17:10.594Z,1001.62
2018-03-29T12:18:20.250Z,1001.69
2018-03-29T12:19:29.306Z,1001.63
2018-03-29T12:20:38.115Z,1001.69
2018-03-29T12:21:46.883Z,1001.68
2018-03-29T12:22:55.929Z,1001.7
2018-03-29T12:24:04.958Z,1001.65
2018-03-29T12:25:14.536Z,1001.69
2018-03-29T12:26:23.589Z,1001.72
2018-03-29T12:27:32.824Z,1001.71
2018-03-29T12:28:42.342Z,1001.8
2018-03-29T12:29:51.372Z,1001.79
2018-03-29T12:31:00.413Z,1001.83
2018-03-29T12:32:09.942Z,1001.76
2018-03-29T12:33:19.093Z,1001.7
2018-03-29T12:34:28.196Z,1001.84
2018-03-29T12:35:37.528Z,1001.8
2018-03-29T12:36:47.371Z,1001.73
2018-03-29T12:37:56.909Z,1001.82
2018-03-29T12:39:05.963Z,1001.82
2018-03-29T12:40:15.312Z,1001.81
2018-03-29T12:41:24.415Z,1001.83
2018-03-29T12:42:33.361Z,1001.85
2018-03-29T12:43:42.466Z,1001.91
2018-03-29T12:44:51.542Z,1001.91
2018-03-29T12:46:00.688Z,1001.87
2018-03-29T12:47:09.646Z,1001.88
2018-03-29T12:48:18.917Z,1001.93
2018-03-29T12:49:27.902Z,1002
2018-03-29T12:50:36.690Z,1002
2018-03-29T12:51:46.247Z,1002.01
2018-03-29T12:52:56.164Z,1001.96
2018-03-29T12:54:05.221Z,1002.03
2018-03-29T12:55:14.228Z,1001.99
2018-03-29T12:56:23.573Z,1001.94
2018-03-29T12:57:33.123Z,1001.99
2018-03-29T12:58:42.402Z,1001.93
2018-03-29T12:59:51.116Z,1001.9
2018-03-29T13:01:00.316Z,1001.91
2018-03-29T13:02:09.828Z,1001.83
2018-03-29T13:03:18.804Z,1001.94
2018-03-29T13:04:27.507Z,1001.94
2018-03-29T13:05:36.794Z,1001.92
2018-03-29T13:06:45.821Z,1001.9
2018-03-29T13:07:55.364Z,1001.89
2018-03-29T13:09:04.390Z,1001.94
2018-03-29T13:10:13.669Z,1001.92
2018-03-29T13:11:22.964Z,1001.9
2018-03-29T13:12:32.083Z,1001.88
2018-03-29T13:13:41.291Z,1001.88
2018-03-29T13:14:50.687Z,1001.89
2018-03-29T13:15:59.989Z,1001.84
2018-03-29T13:17:09.231Z,1001.8
2018-03-29T13:18:17.976Z,1001.82
2018-03-29T13:19:26.979Z,1001.79
2018-03-29T13:20:36.565Z,1001.75
2018-03-29T13:21:45.341Z,1001.7
2018-03-29T13:22:54.027Z,1001.72
2018-03-29T13:24:03.055Z,1001.72
2018-03-29T13:25:12.061Z,1001.73
2018-03-29T13:26:21.598Z,1001.7
2018-03-29T13:27:30.616Z,1001.71
2018-03-29T13:28:39.379Z,1001.64
2018-03-29T13:29:48.593Z,1001.64
2018-03-29T13:30:57.864Z,1001.66
2018-03-29T13:32:07.373Z,1001.6
2018-03-29T13:33:16.490Z,1001.61
2018-03-29T13:34:25.328Z,1001.57
2018-03-29T13:35:34.614Z,1001.52
2018-03-29T13:36:44.010Z,1001.54
2018-03-29T13:37:53.010Z,1001.56
2018-03-29T13:39:02.117Z,1001.56
2018-03-29T13:40:11.444Z,1001.57
2018-03-29T13:41:20.460Z,1001.53
2018-03-29T13:42:29.230Z,1001.55
2018-03-29T13:43:38.456Z,1001.48
2018-03-29T13:44:47.634Z,1001.5
2018-03-29T13:45:56.532Z,1001.48
2018-03-29T13:47:05.757Z,1001.44
2018-03-29T13:48:14.754Z,1001.46
2018-03-29T13:49:23.524Z,1001.41
2018-03-29T13:50:32.497Z,1001.4
2018-03-29T13:51:41.998Z,1001.35
2018-03-29T13:52:51.297Z,1001.38
2018-03-29T13:54:00.267Z,1001.38
2018-03-29T13:55:09.284Z,1001.42
2018-03-29T13:56:18.533Z,1001.36
2018-03-29T13:57:27.281Z,1001.38
2018-03-29T13:58:36.343Z,1001.38
2018-03-29T13:59:45.623Z,1001.44
2018-03-29T14:00:54.920Z,1001.46
2018-03-29T14:02:04.251Z,1001.46
2018-03-29T14:03:13.571Z,1001.44